Airfield :
LOGIN :

Register | Disclaimer

   EN    FR    IT 

 










Legend :    VFR   Marginal VFR   IFR   Intensive IFR   Very Intensive IFR
Visi :
Ceiling :
>= 8 km
>= 3000ft
5 to 8 km
1000 to 3000 ft
1500m to 5 km
500 to 1000 ft
800 to 1500m
200 to 500 ft
< 800m
< 200 ft
Symbols :   Thunderstorms  Fog  Heavy snow  Heavy precipitations  Wind > 20 kt
SIGMETs :     Misc.  Thunderstorms  Icing  Turbulence  Mountain Waves  Volcanic Ashes






- Airport Elevation : 5600 ft
- IATA code : SMV


LSZS - Samedan

CURRENT METAR :
  • 280720Z VRB02KT CAVOK M09/M10 Q1018 RMK B TL170

EXPIRED METARs :
  • 280650Z VRB01KT CAVOK M10/M10 Q1017 RMK A TL170
  • 280620Z AUTO 21003KT 200V290 CAVOK M10/M11 Q1017
  • 280550Z AUTO VRB01KT CAVOK M09/M10 Q1017
  • 280520Z AUTO 19003KT CAVOK M10/M11 Q1017
  • 280450Z AUTO VRB01KT CAVOK M09/M10 Q1018

TAF TAF LSZS
Valid from the 28 at 06:00 until the 28 at 15:00 UTC


280525Z 2806/2815 VRB02KT CAVOK TX04/2815Z
BECMG 2811/2813 22012KT
ATIS : +41 81 834 93 24



MET'MAP, your aeronautical weather chart ! - Copyright ORBIFLY December 2007 - Disclaimer

ORBIFLY MET'MAP TEAM :

Programming & Development : Alexandra Zaïnal
Concept & original design : Baudouin d'Aumeries
Assistance for programming : Marc-Olivier Méhu
Technical & hardware support : Manuel Goepfert

Contact : metmap@orbifly.com




SOURCES & CREDITS :

   NOAA